createdAt,value
2018-12-09T00:00:19.957Z,8.60
2018-12-09T00:01:22.574Z,8.70
2018-12-09T00:02:25.197Z,8.70
2018-12-09T00:03:27.789Z,8.70
2018-12-09T00:04:30.393Z,8.60
2018-12-09T00:05:32.895Z,8.70
2018-12-09T00:06:35.437Z,8.60
2018-12-09T00:07:37.941Z,8.60
2018-12-09T00:08:40.506Z,8.70
2018-12-09T00:09:43.006Z,8.70
2018-12-09T00:10:45.507Z,8.70
2018-12-09T00:11:48.047Z,8.70
2018-12-09T00:12:50.549Z,8.70
2018-12-09T00:13:53.058Z,8.70
2018-12-09T00:14:55.607Z,8.70
2018-12-09T00:15:58.113Z,8.70
2018-12-09T00:17:00.620Z,8.80
2018-12-09T00:18:03.123Z,8.70
2018-12-09T00:19:05.621Z,8.70
2018-12-09T00:20:08.161Z,8.80
2018-12-09T00:21:10.668Z,8.70
2018-12-09T00:22:13.225Z,8.80
2018-12-09T00:23:15.810Z,8.80
2018-12-09T00:24:18.307Z,8.80
2018-12-09T00:25:20.806Z,8.70
2018-12-09T00:26:23.341Z,8.70
2018-12-09T00:27:25.845Z,8.70
2018-12-09T00:28:28.349Z,8.70
2018-12-09T00:29:30.874Z,8.80
2018-12-09T00:30:33.449Z,8.80
2018-12-09T00:31:35.957Z,8.90
2018-12-09T00:32:38.462Z,8.90
2018-12-09T00:33:40.975Z,8.90
2018-12-09T00:34:43.495Z,8.90
2018-12-09T00:35:46.041Z,8.90
2018-12-09T00:36:48.595Z,8.80
2018-12-09T00:37:51.185Z,8.90
2018-12-09T00:38:53.686Z,8.80
2018-12-09T00:39:56.218Z,8.80
2018-12-09T00:40:58.718Z,8.80
2018-12-09T00:42:01.221Z,8.80
2018-12-09T00:43:04.686Z,8.80
2018-12-09T00:44:07.187Z,8.80
2018-12-09T00:45:09.843Z,8.80
2018-12-09T00:46:12.343Z,8.80
2018-12-09T00:47:14.842Z,8.80
2018-12-09T00:48:17.338Z,8.70
2018-12-09T00:49:19.843Z,8.70
2018-12-09T00:50:22.393Z,8.70
2018-12-09T00:51:24.902Z,8.70
2018-12-09T00:52:27.408Z,8.60
2018-12-09T00:53:29.918Z,8.70
2018-12-09T00:54:32.418Z,8.60
2018-12-09T00:55:34.957Z,8.70
2018-12-09T00:56:37.547Z,8.70
2018-12-09T00:57:40.050Z,8.70
2018-12-09T00:58:42.549Z,8.70
2018-12-09T00:59:45.057Z,8.70
2018-12-09T01:00:47.566Z,8.70
2018-12-09T01:01:50.122Z,8.70
2018-12-09T01:02:52.626Z,8.70
2018-12-09T01:03:55.138Z,8.70
2018-12-09T01:04:57.649Z,8.70
2018-12-09T01:06:00.169Z,8.70
2018-12-09T01:07:02.701Z,8.60
2018-12-09T01:08:05.248Z,8.70
2018-12-09T01:09:07.747Z,8.70
2018-12-09T01:10:10.283Z,8.80
2018-12-09T01:11:12.794Z,8.80
2018-12-09T01:12:15.329Z,8.80
2018-12-09T01:13:17.846Z,8.80
2018-12-09T01:14:20.393Z,8.90
2018-12-09T01:15:22.995Z,9.00
2018-12-09T01:16:25.521Z,9.10
2018-12-09T01:17:28.059Z,9.00
2018-12-09T01:18:30.562Z,9.10
2018-12-09T01:19:33.149Z,9.10
2018-12-09T01:20:35.651Z,9.20
2018-12-09T01:21:38.155Z,9.20
2018-12-09T01:22:40.695Z,9.30
2018-12-09T01:23:43.219Z,9.30
2018-12-09T01:24:45.721Z,9.30
2018-12-09T01:25:48.274Z,9.40
2018-12-09T01:26:50.777Z,9.40
2018-12-09T01:27:53.369Z,9.40
2018-12-09T01:28:55.877Z,9.50
2018-12-09T01:29:58.389Z,9.50
2018-12-09T01:31:00.899Z,9.50
2018-12-09T01:32:03.599Z,9.50
2018-12-09T01:33:06.134Z,9.40
2018-12-09T01:34:08.644Z,9.30
2018-12-09T01:35:11.195Z,9.20
2018-12-09T01:36:13.696Z,8.90
2018-12-09T01:37:16.523Z,8.70
2018-12-09T01:38:19.037Z,8.60
2018-12-09T01:39:21.581Z,8.40
2018-12-09T01:40:24.101Z,8.20
2018-12-09T01:41:26.642Z,8.00
2018-12-09T01:42:29.153Z,7.90
2018-12-09T01:43:31.656Z,7.80
2018-12-09T01:44:34.212Z,7.70
2018-12-09T01:45:36.772Z,7.60
2018-12-09T01:46:39.280Z,7.60
2018-12-09T01:47:41.790Z,7.50
2018-12-09T01:48:44.301Z,7.50
2018-12-09T01:49:46.808Z,7.40
2018-12-09T01:50:49.398Z,7.40
2018-12-09T01:51:51.906Z,7.40
2018-12-09T01:52:58.636Z,7.40
2018-12-09T01:54:09.668Z,7.40
2018-12-09T01:55:12.242Z,7.30
2018-12-09T01:56:14.874Z,7.40
2018-12-09T01:57:17.799Z,7.30
2018-12-09T01:58:20.361Z,7.30
2018-12-09T01:59:22.958Z,7.30
2018-12-09T02:00:25.518Z,7.40
2018-12-09T02:01:28.078Z,7.40
2018-12-09T02:02:30.610Z,7.30
2018-12-09T02:03:33.122Z,7.30
2018-12-09T02:04:35.666Z,7.30
2018-12-09T02:05:38.183Z,7.30
2018-12-09T02:06:40.737Z,7.30
2018-12-09T02:07:43.315Z,7.30
2018-12-09T02:08:45.823Z,7.30
2018-12-09T02:09:48.363Z,7.30
2018-12-09T02:10:50.869Z,7.30
2018-12-09T02:11:53.387Z,7.30
2018-12-09T02:12:56.141Z,7.30
2018-12-09T02:13:58.978Z,7.20
2018-12-09T02:15:01.482Z,7.30
2018-12-09T02:16:04.046Z,7.30
2018-12-09T02:17:06.813Z,7.20
2018-12-09T02:18:09.334Z,7.30
2018-12-09T02:19:15.437Z,7.30
2018-12-09T02:20:17.990Z,7.30
2018-12-09T02:21:20.496Z,7.30
2018-12-09T02:22:23.002Z,7.30
2018-12-09T02:23:25.509Z,7.30
2018-12-09T02:24:28.057Z,7.30
2018-12-09T02:25:30.557Z,7.30
2018-12-09T02:26:33.122Z,7.30
2018-12-09T02:27:35.641Z,7.30
2018-12-09T02:28:38.218Z,7.40
2018-12-09T02:29:40.757Z,7.40
2018-12-09T02:30:43.482Z,7.40
2018-12-09T02:31:46.559Z,7.40
2018-12-09T02:32:49.070Z,7.40
2018-12-09T02:33:51.609Z,7.40
2018-12-09T02:34:54.118Z,7.50
2018-12-09T02:35:56.672Z,7.50
2018-12-09T02:36:59.179Z,7.50
2018-12-09T02:38:01.698Z,7.50
2018-12-09T02:39:05.449Z,7.50
2018-12-09T02:40:08.009Z,7.50
2018-12-09T02:41:10.586Z,7.50
2018-12-09T02:42:13.221Z,7.50
2018-12-09T02:43:15.800Z,7.50
2018-12-09T02:44:18.348Z,7.50
2018-12-09T02:45:20.846Z,7.50
2018-12-09T02:46:23.351Z,7.50
2018-12-09T02:47:26.277Z,7.50
2018-12-09T02:48:29.099Z,7.60
2018-12-09T02:49:31.641Z,7.60
2018-12-09T02:50:34.160Z,7.60
2018-12-09T02:51:36.769Z,7.50
2018-12-09T02:52:39.427Z,7.60
2018-12-09T02:54:51.012Z,7.60
2018-12-09T02:55:53.523Z,7.50
2018-12-09T02:56:56.035Z,7.50
2018-12-09T02:57:58.545Z,7.50
2018-12-09T02:59:01.052Z,7.60
2018-12-09T03:00:04.953Z,7.60
2018-12-09T03:01:07.522Z,7.60
2018-12-09T03:02:10.074Z,7.60
2018-12-09T03:03:12.591Z,7.60
2018-12-09T03:04:15.090Z,7.60
2018-12-09T03:05:17.602Z,7.60
2018-12-09T03:06:20.332Z,7.70
2018-12-09T03:07:22.891Z,7.70
2018-12-09T03:08:25.392Z,7.70
2018-12-09T03:09:27.889Z,7.70
2018-12-09T03:10:30.400Z,7.80
2018-12-09T03:11:32.942Z,7.80
2018-12-09T03:12:35.449Z,7.80
2018-12-09T03:13:37.990Z,7.80
2018-12-09T03:14:40.504Z,7.80
2018-12-09T03:15:43.009Z,7.80
2018-12-09T03:16:45.518Z,7.80
2018-12-09T03:17:48.041Z,7.80
2018-12-09T03:18:50.591Z,7.80
2018-12-09T03:19:53.114Z,7.80
2018-12-09T03:20:55.622Z,7.80
2018-12-09T03:21:58.550Z,7.90
2018-12-09T03:23:01.137Z,7.90
2018-12-09T03:24:03.740Z,7.90
2018-12-09T03:25:06.305Z,7.90
2018-12-09T03:26:08.826Z,7.90
2018-12-09T03:27:11.335Z,7.90
2018-12-09T03:28:13.854Z,7.90
2018-12-09T03:29:16.382Z,7.90
2018-12-09T03:30:18.909Z,7.90
2018-12-09T03:31:21.535Z,7.80
2018-12-09T03:32:24.133Z,7.80
2018-12-09T03:33:26.710Z,7.80
2018-12-09T03:34:29.253Z,7.80
2018-12-09T03:35:31.761Z,7.80
2018-12-09T03:36:34.269Z,7.80
2018-12-09T03:37:37.089Z,7.80
2018-12-09T03:38:40.011Z,7.80
2018-12-09T03:39:42.674Z,7.80
2018-12-09T03:40:45.186Z,7.80
2018-12-09T03:41:47.800Z,7.80
2018-12-09T03:42:50.312Z,7.90
2018-12-09T03:43:52.839Z,7.90
2018-12-09T03:44:55.390Z,7.80
2018-12-09T03:45:57.901Z,7.80
2018-12-09T03:47:00.401Z,7.80
2018-12-09T03:48:02.912Z,7.80
2018-12-09T03:49:05.422Z,7.80
2018-12-09T03:50:08.070Z,7.80
2018-12-09T03:51:10.717Z,7.80
2018-12-09T03:52:13.220Z,7.70
2018-12-09T03:53:16.041Z,7.70
2018-12-09T03:54:18.861Z,7.70
2018-12-09T03:55:21.357Z,7.60
2018-12-09T03:56:23.903Z,7.70
2018-12-09T03:57:26.411Z,7.70
2018-12-09T03:58:28.923Z,7.70
2018-12-09T03:59:31.449Z,7.70
2018-12-09T04:00:33.960Z,7.70
2018-12-09T04:01:36.504Z,7.80
2018-12-09T04:02:39.066Z,7.80
2018-12-09T04:03:41.704Z,7.80
2018-12-09T04:04:44.230Z,7.80
2018-12-09T04:05:46.876Z,7.80
2018-12-09T04:06:49.424Z,7.80
2018-12-09T04:07:52.045Z,7.80
2018-12-09T04:08:54.825Z,7.80
2018-12-09T04:09:57.383Z,7.90
2018-12-09T04:10:59.897Z,7.80
2018-12-09T04:12:02.410Z,7.80
2018-12-09T04:13:04.955Z,7.80
2018-12-09T04:14:07.494Z,7.80
2018-12-09T04:15:10.060Z,7.80
2018-12-09T04:16:12.574Z,7.80
2018-12-09T04:17:15.134Z,7.90
2018-12-09T04:18:17.701Z,7.90
2018-12-09T04:19:20.262Z,7.90
2018-12-09T04:20:22.783Z,7.90
2018-12-09T04:21:25.294Z,7.90
2018-12-09T04:22:27.863Z,7.90
2018-12-09T04:23:30.429Z,7.90
2018-12-09T04:24:33.286Z,7.90
2018-12-09T04:25:35.798Z,7.90
2018-12-09T04:26:38.306Z,7.90
2018-12-09T04:27:40.812Z,7.90
2018-12-09T04:28:43.350Z,8.00
2018-12-09T04:29:45.849Z,8.00
2018-12-09T04:30:48.376Z,8.00
2018-12-09T04:31:50.882Z,8.00
2018-12-09T04:32:53.417Z,8.00
2018-12-09T04:33:55.931Z,8.00
2018-12-09T04:34:58.477Z,7.90
2018-12-09T04:36:00.994Z,8.00
2018-12-09T04:37:03.490Z,8.00
2018-12-09T04:38:06.002Z,8.00
2018-12-09T04:39:08.517Z,8.00
2018-12-09T04:40:11.482Z,8.00
2018-12-09T04:41:13.994Z,8.00
2018-12-09T04:42:16.498Z,8.00
2018-12-09T04:43:19.004Z,8.00
2018-12-09T04:44:21.549Z,8.00
2018-12-09T04:45:24.081Z,8.00
2018-12-09T04:47:35.536Z,8.00
2018-12-09T04:48:38.086Z,8.00
2018-12-09T04:49:40.590Z,7.90
2018-12-09T04:50:43.104Z,7.80
2018-12-09T04:51:53.254Z,7.80
2018-12-09T04:52:55.809Z,7.70
2018-12-09T04:53:58.361Z,7.70
2018-12-09T04:55:00.871Z,7.60
2018-12-09T04:56:03.390Z,7.60
2018-12-09T04:57:05.905Z,7.50
2018-12-09T04:58:08.456Z,7.50
2018-12-09T04:59:16.065Z,7.50
2018-12-09T05:00:30.982Z,7.50
2018-12-09T05:01:33.486Z,7.50
2018-12-09T05:02:36.174Z,7.50
2018-12-09T05:03:39.134Z,7.50
2018-12-09T05:04:41.653Z,7.50
2018-12-09T05:05:44.165Z,7.50
2018-12-09T05:06:46.727Z,7.50
2018-12-09T05:07:49.234Z,7.50
2018-12-09T05:08:51.778Z,7.50
2018-12-09T05:09:54.287Z,7.50
2018-12-09T05:10:56.809Z,7.50
2018-12-09T05:11:59.321Z,7.50
2018-12-09T05:13:01.878Z,7.50
2018-12-09T05:14:04.659Z,7.50
2018-12-09T05:15:07.393Z,7.50
2018-12-09T05:16:09.903Z,7.50
2018-12-09T05:17:12.437Z,7.50
2018-12-09T05:18:15.258Z,7.50
2018-12-09T05:19:17.762Z,7.50
2018-12-09T05:20:20.272Z,7.50
2018-12-09T05:21:22.822Z,7.50
2018-12-09T05:22:25.329Z,7.50
2018-12-09T05:23:27.833Z,7.50
2018-12-09T05:24:30.338Z,7.40
2018-12-09T05:25:32.861Z,7.50
2018-12-09T05:26:35.401Z,7.50
2018-12-09T05:27:37.905Z,7.50
2018-12-09T05:28:40.414Z,7.50
2018-12-09T05:29:42.921Z,7.50
2018-12-09T05:30:45.430Z,7.50
2018-12-09T05:31:47.989Z,7.50
2018-12-09T05:32:50.498Z,7.40
2018-12-09T05:33:53.643Z,7.40
2018-12-09T05:34:56.141Z,7.40
2018-12-09T05:35:58.663Z,7.40
2018-12-09T05:37:01.165Z,7.40
2018-12-09T05:38:03.725Z,7.40
2018-12-09T05:39:06.377Z,7.40
2018-12-09T05:40:08.914Z,7.40
2018-12-09T05:41:11.453Z,7.40
2018-12-09T05:42:13.985Z,7.40
2018-12-09T05:43:16.494Z,7.40
2018-12-09T05:44:19.007Z,7.30
2018-12-09T05:45:21.508Z,7.30
2018-12-09T05:46:24.053Z,7.30
2018-12-09T05:47:26.561Z,7.40
2018-12-09T05:48:29.489Z,7.40
2018-12-09T05:49:32.016Z,7.40
2018-12-09T05:50:34.553Z,7.40
2018-12-09T05:51:37.054Z,7.40
2018-12-09T05:52:39.593Z,7.40
2018-12-09T05:53:42.131Z,7.30
2018-12-09T05:54:44.686Z,7.40
2018-12-09T05:55:47.260Z,7.30
2018-12-09T05:56:49.814Z,7.40
2018-12-09T05:57:52.317Z,7.40
2018-12-09T05:58:54.817Z,7.40
2018-12-09T05:59:57.314Z,7.40
2018-12-09T06:00:59.822Z,7.40
2018-12-09T06:02:14.142Z,7.40
2018-12-09T06:03:16.701Z,7.40
2018-12-09T06:04:19.210Z,7.40
2018-12-09T06:05:21.814Z,7.40
2018-12-09T06:06:24.861Z,7.40
2018-12-09T06:07:27.396Z,7.40
2018-12-09T06:08:29.941Z,7.50
2018-12-09T06:09:32.449Z,7.50
2018-12-09T06:10:35.022Z,7.50
2018-12-09T06:11:37.530Z,7.50
2018-12-09T06:12:40.069Z,7.50
2018-12-09T06:13:42.600Z,7.50
2018-12-09T06:14:45.117Z,7.50
2018-12-09T06:15:47.641Z,7.40
2018-12-09T06:16:50.193Z,7.40
2018-12-09T06:17:52.734Z,7.40
2018-12-09T06:18:55.278Z,7.40
2018-12-09T06:19:57.785Z,7.40
2018-12-09T06:21:00.513Z,7.40
2018-12-09T06:22:03.021Z,7.40
2018-12-09T06:23:05.533Z,7.40
2018-12-09T06:24:08.077Z,7.30
2018-12-09T06:25:10.696Z,7.40
2018-12-09T06:26:13.200Z,7.40
2018-12-09T06:27:15.713Z,7.40
2018-12-09T06:28:18.253Z,7.40
2018-12-09T06:29:20.811Z,7.30
2018-12-09T06:30:23.326Z,7.40
2018-12-09T06:31:25.841Z,7.40
2018-12-09T06:32:28.344Z,7.40
2018-12-09T06:33:32.597Z,7.40
2018-12-09T06:34:35.160Z,7.40
2018-12-09T06:35:37.704Z,7.40
2018-12-09T06:36:40.628Z,7.40
2018-12-09T06:37:43.214Z,7.40
2018-12-09T06:38:45.718Z,7.40
2018-12-09T06:39:48.277Z,7.40
2018-12-09T06:40:50.782Z,7.40
2018-12-09T06:41:53.286Z,7.40
2018-12-09T06:42:55.825Z,7.40
2018-12-09T06:43:58.333Z,7.40
2018-12-09T06:45:00.836Z,7.40
2018-12-09T06:46:03.333Z,7.40
2018-12-09T06:47:05.885Z,7.30
2018-12-09T06:48:08.388Z,7.30
2018-12-09T06:49:10.910Z,7.40
2018-12-09T06:50:13.449Z,7.40
2018-12-09T06:51:16.482Z,7.40
2018-12-09T06:52:18.991Z,7.40
2018-12-09T06:53:21.514Z,7.40
2018-12-09T06:54:24.020Z,7.40
2018-12-09T06:55:26.550Z,7.40
2018-12-09T06:56:29.114Z,7.40
2018-12-09T06:57:31.660Z,7.50
2018-12-09T06:58:34.214Z,7.50
2018-12-09T06:59:36.717Z,7.40
2018-12-09T07:00:39.233Z,7.50
2018-12-09T07:01:41.734Z,7.50
2018-12-09T07:02:44.290Z,7.50
2018-12-09T07:03:46.802Z,7.60
2018-12-09T07:04:49.554Z,7.60
2018-12-09T07:05:52.053Z,7.60
2018-12-09T07:06:54.557Z,7.60
2018-12-09T07:07:57.098Z,7.60
2018-12-09T07:08:59.602Z,7.70
2018-12-09T07:10:02.164Z,7.70
2018-12-09T07:11:04.720Z,7.70
2018-12-09T07:12:07.283Z,7.70
2018-12-09T07:13:09.864Z,7.70
2018-12-09T07:14:12.369Z,7.70
2018-12-09T07:15:14.879Z,7.70
2018-12-09T07:16:17.394Z,7.70
2018-12-09T07:17:19.909Z,7.70
2018-12-09T07:18:22.450Z,7.70
2018-12-09T07:19:25.278Z,7.70
2018-12-09T07:20:27.841Z,7.70
2018-12-09T07:21:30.387Z,7.70
2018-12-09T07:22:32.897Z,7.70
2018-12-09T07:23:35.400Z,7.80
2018-12-09T07:24:37.929Z,7.80
2018-12-09T07:25:40.481Z,7.80
2018-12-09T07:26:42.987Z,7.80
2018-12-09T07:27:45.494Z,7.80
2018-12-09T07:28:48.004Z,7.90
2018-12-09T07:29:50.514Z,7.90
2018-12-09T07:30:53.053Z,7.90
2018-12-09T07:31:55.562Z,8.00
2018-12-09T07:32:58.072Z,8.00
2018-12-09T07:34:00.993Z,8.00
2018-12-09T07:35:03.722Z,8.00
2018-12-09T07:36:06.266Z,8.10
2018-12-09T07:37:08.778Z,8.00
2018-12-09T07:38:11.368Z,8.00
2018-12-09T07:39:13.917Z,8.00
2018-12-09T07:40:16.434Z,8.00
2018-12-09T07:41:18.954Z,8.00
2018-12-09T07:42:21.465Z,8.00
2018-12-09T07:43:24.002Z,7.90
2018-12-09T07:44:26.513Z,7.90
2018-12-09T07:45:29.018Z,7.90
2018-12-09T07:46:31.584Z,8.00
2018-12-09T07:47:34.207Z,7.90
2018-12-09T07:48:37.169Z,7.90
2018-12-09T07:49:39.685Z,7.90
2018-12-09T07:50:42.237Z,7.90
2018-12-09T07:51:44.749Z,7.90
2018-12-09T07:52:47.248Z,7.90
2018-12-09T07:53:49.786Z,7.90
2018-12-09T07:54:52.301Z,7.90
2018-12-09T07:55:54.812Z,7.90
2018-12-09T07:56:57.360Z,7.90
2018-12-09T07:57:59.894Z,7.90
2018-12-09T07:59:02.402Z,7.90
2018-12-09T08:00:07.616Z,7.90
2018-12-09T08:01:10.170Z,7.90
2018-12-09T08:02:12.706Z,7.90
2018-12-09T08:03:15.271Z,7.90
2018-12-09T08:04:17.781Z,7.90
2018-12-09T08:05:20.273Z,7.90
2018-12-09T08:06:22.983Z,7.90
2018-12-09T08:07:25.493Z,7.90
2018-12-09T08:08:28.030Z,7.90
2018-12-09T08:09:30.562Z,7.90
2018-12-09T08:10:33.082Z,7.90
2018-12-09T08:11:35.583Z,7.90
2018-12-09T08:12:38.088Z,7.90
2018-12-09T08:13:40.584Z,7.90
2018-12-09T08:14:43.129Z,7.90
2018-12-09T08:15:45.630Z,7.90
2018-12-09T08:16:48.134Z,7.90
2018-12-09T08:17:50.647Z,7.90
2018-12-09T08:18:53.145Z,7.90
2018-12-09T08:19:55.686Z,7.90
2018-12-09T08:20:58.190Z,7.90
2018-12-09T08:23:09.758Z,7.90
2018-12-09T08:24:12.274Z,7.90
2018-12-09T08:25:14.777Z,7.90
2018-12-09T08:26:17.275Z,7.90
2018-12-09T08:27:19.806Z,7.90
2018-12-09T08:28:22.310Z,7.90
2018-12-09T08:29:24.806Z,7.90
2018-12-09T08:30:27.309Z,7.90
2018-12-09T08:31:29.813Z,7.90
2018-12-09T08:32:32.418Z,7.90
2018-12-09T08:33:34.919Z,7.90
2018-12-09T08:34:37.417Z,7.90
2018-12-09T08:35:39.977Z,7.90
2018-12-09T08:36:42.529Z,7.90
2018-12-09T08:37:45.069Z,7.90
2018-12-09T08:38:47.565Z,7.90
2018-12-09T08:39:50.073Z,7.90
2018-12-09T08:40:52.576Z,7.90
2018-12-09T08:41:55.077Z,7.90
2018-12-09T08:42:57.611Z,7.90
2018-12-09T08:44:00.123Z,7.90
2018-12-09T08:45:03.021Z,7.90
2018-12-09T08:46:05.517Z,7.90
2018-12-09T08:47:08.063Z,7.90
2018-12-09T08:48:10.614Z,7.90
2018-12-09T08:49:13.116Z,7.80
2018-12-09T08:50:15.613Z,7.80
2018-12-09T08:51:18.109Z,7.80
2018-12-09T08:52:20.613Z,7.80
2018-12-09T08:53:23.149Z,7.80
2018-12-09T08:54:25.654Z,7.70
2018-12-09T08:55:28.193Z,7.70
2018-12-09T08:56:30.697Z,7.70
2018-12-09T08:57:33.203Z,7.60
2018-12-09T08:58:35.705Z,7.60
2018-12-09T08:59:38.242Z,7.60
2018-12-09T09:00:40.823Z,7.60
2018-12-09T09:01:43.327Z,7.60
2018-12-09T09:02:45.826Z,7.60
2018-12-09T09:03:48.333Z,7.60
2018-12-09T09:04:50.878Z,7.60
2018-12-09T09:05:53.425Z,7.60
2018-12-09T09:06:55.931Z,7.60
2018-12-09T09:07:58.426Z,7.60
2018-12-09T09:09:00.921Z,7.60
2018-12-09T09:10:03.968Z,7.60
2018-12-09T09:11:06.470Z,7.60
2018-12-09T09:12:08.963Z,7.60
2018-12-09T09:13:11.463Z,7.60
2018-12-09T09:14:14.051Z,7.50
2018-12-09T09:15:16.609Z,7.60
2018-12-09T09:16:19.117Z,7.50
2018-12-09T09:17:21.616Z,7.60
2018-12-09T09:18:24.205Z,7.60
2018-12-09T09:19:26.713Z,7.50
2018-12-09T09:20:29.266Z,7.50
2018-12-09T09:21:31.770Z,7.50
2018-12-09T09:22:34.274Z,7.50
2018-12-09T09:23:36.818Z,7.60
2018-12-09T09:24:39.319Z,7.50
2018-12-09T09:25:41.897Z,7.50
2018-12-09T09:26:44.526Z,7.50
2018-12-09T09:27:47.030Z,7.60
2018-12-09T09:28:49.530Z,7.60
2018-12-09T09:29:52.027Z,7.60
2018-12-09T09:30:54.577Z,7.60
2018-12-09T09:31:57.078Z,7.60
2018-12-09T09:32:59.578Z,7.60
2018-12-09T09:34:02.077Z,7.60
2018-12-09T09:35:04.632Z,7.60
2018-12-09T09:36:07.175Z,7.60
2018-12-09T09:37:09.690Z,7.60
2018-12-09T09:38:12.230Z,7.60
2018-12-09T09:39:14.786Z,7.60
2018-12-09T09:40:17.283Z,7.50
2018-12-09T09:41:19.786Z,7.50
2018-12-09T09:42:22.301Z,7.50
2018-12-09T09:43:24.837Z,7.50
2018-12-09T09:44:27.346Z,7.50
2018-12-09T09:45:29.846Z,7.50
2018-12-09T09:46:32.378Z,7.50
2018-12-09T09:47:34.886Z,7.50
2018-12-09T09:48:37.384Z,7.50
2018-12-09T09:49:39.929Z,7.60
2018-12-09T09:50:42.466Z,7.60
2018-12-09T09:51:45.010Z,7.60
2018-12-09T09:52:47.628Z,7.60
2018-12-09T09:53:50.145Z,7.60
2018-12-09T09:54:52.723Z,7.70
2018-12-09T09:55:55.281Z,7.70
2018-12-09T09:56:57.817Z,7.70
2018-12-09T09:58:00.336Z,7.70
2018-12-09T09:59:02.897Z,7.70
2018-12-09T10:00:05.998Z,7.70
2018-12-09T10:01:08.536Z,7.70
2018-12-09T10:02:11.053Z,7.70
2018-12-09T10:03:13.562Z,7.80
2018-12-09T10:04:16.070Z,7.80
2018-12-09T10:05:18.576Z,7.80
2018-12-09T10:06:21.109Z,7.70
2018-12-09T10:07:23.607Z,7.80
2018-12-09T10:08:26.110Z,7.80
2018-12-09T10:09:28.610Z,7.80
2018-12-09T10:10:31.190Z,7.80
2018-12-09T10:11:33.790Z,7.80
2018-12-09T10:12:36.293Z,7.80
2018-12-09T10:13:38.841Z,7.80
2018-12-09T10:14:41.346Z,7.80
2018-12-09T10:15:43.845Z,7.90
2018-12-09T10:16:46.348Z,7.80
2018-12-09T10:17:48.904Z,7.80
2018-12-09T10:18:51.486Z,7.80
2018-12-09T10:19:53.990Z,7.80
2018-12-09T10:20:56.534Z,7.80
2018-12-09T10:21:59.051Z,7.90
2018-12-09T10:23:01.557Z,7.90
2018-12-09T10:24:04.061Z,7.80
2018-12-09T10:25:06.614Z,7.90
2018-12-09T10:26:09.154Z,7.90
2018-12-09T10:27:11.667Z,7.90
2018-12-09T10:28:14.173Z,7.90
2018-12-09T10:29:16.717Z,7.90
2018-12-09T10:30:19.216Z,7.90
2018-12-09T10:31:21.718Z,7.90
2018-12-09T10:32:24.218Z,7.90
2018-12-09T10:33:26.717Z,7.90
2018-12-09T10:34:29.262Z,7.90
2018-12-09T10:35:31.769Z,8.00
2018-12-09T10:36:34.316Z,7.90
2018-12-09T10:37:36.826Z,8.00
2018-12-09T10:38:39.378Z,8.00
2018-12-09T10:39:41.917Z,7.90
2018-12-09T10:40:44.414Z,8.00
2018-12-09T10:41:46.966Z,8.00
2018-12-09T10:42:49.462Z,8.00
2018-12-09T10:43:51.993Z,8.00
2018-12-09T10:44:54.499Z,8.00
2018-12-09T10:45:56.997Z,8.00
2018-12-09T10:46:59.494Z,8.00
2018-12-09T10:48:02.029Z,8.00
2018-12-09T10:49:04.525Z,8.00
2018-12-09T10:50:07.339Z,8.00
2018-12-09T10:51:09.847Z,8.00
2018-12-09T10:52:12.359Z,8.00
2018-12-09T10:53:14.941Z,8.00
2018-12-09T10:54:17.474Z,8.00
2018-12-09T10:55:20.001Z,8.00
2018-12-09T10:56:22.565Z,8.00
2018-12-09T10:57:25.069Z,8.10
2018-12-09T10:58:27.585Z,8.10
2018-12-09T10:59:30.106Z,8.10
2018-12-09T11:00:38.249Z,8.10
2018-12-09T11:01:42.714Z,8.10
2018-12-09T11:02:45.218Z,8.10
2018-12-09T11:03:48.008Z,8.10
2018-12-09T11:04:50.505Z,8.10
2018-12-09T11:05:53.001Z,8.10
2018-12-09T11:06:55.533Z,8.10
2018-12-09T11:07:58.033Z,8.00
2018-12-09T11:09:00.569Z,8.00
2018-12-09T11:10:03.289Z,8.00
2018-12-09T11:11:05.795Z,8.00
2018-12-09T11:12:08.346Z,8.00
2018-12-09T11:13:10.951Z,8.00
2018-12-09T11:14:13.494Z,8.00
2018-12-09T11:15:16.028Z,8.00
2018-12-09T11:16:18.566Z,8.00
2018-12-09T11:17:21.070Z,8.00
2018-12-09T11:18:23.568Z,8.00
2018-12-09T11:19:26.079Z,8.00
2018-12-09T11:20:28.638Z,8.00
2018-12-09T11:21:31.186Z,7.90
2018-12-09T11:22:33.717Z,7.90
2018-12-09T11:23:36.277Z,7.90
2018-12-09T11:24:38.778Z,7.90
2018-12-09T11:25:41.284Z,7.90
2018-12-09T11:26:43.797Z,7.90
2018-12-09T11:27:46.329Z,8.00
2018-12-09T11:28:48.835Z,8.00
2018-12-09T11:29:51.334Z,8.00
2018-12-09T11:30:53.893Z,8.00
2018-12-09T11:31:56.405Z,8.00
2018-12-09T11:32:58.942Z,8.00
2018-12-09T11:34:01.443Z,8.00
2018-12-09T11:35:04.744Z,8.00
2018-12-09T11:36:07.249Z,7.90
2018-12-09T11:37:09.753Z,7.90
2018-12-09T11:38:12.351Z,7.90
2018-12-09T11:39:14.946Z,7.90
2018-12-09T11:40:17.456Z,7.90
2018-12-09T11:41:19.973Z,7.80
2018-12-09T11:42:22.470Z,7.80
2018-12-09T11:43:24.994Z,7.80
2018-12-09T11:44:27.510Z,7.80
2018-12-09T11:45:30.009Z,7.80
2018-12-09T11:46:32.521Z,7.90
2018-12-09T11:47:35.154Z,7.90
2018-12-09T11:48:37.668Z,7.90
2018-12-09T11:49:40.173Z,7.90
2018-12-09T11:50:42.722Z,7.90
2018-12-09T11:51:45.249Z,7.90
2018-12-09T11:52:47.814Z,7.90
2018-12-09T11:53:50.326Z,7.90
2018-12-09T11:54:52.868Z,7.90
2018-12-09T11:55:55.410Z,7.90
2018-12-09T11:56:57.926Z,7.90
2018-12-09T11:58:00.447Z,7.90
2018-12-09T11:59:02.949Z,7.90
2018-12-09T12:00:09.363Z,8.00
2018-12-09T12:01:11.909Z,8.00
2018-12-09T12:02:20.063Z,8.00
2018-12-09T12:03:18.936Z,8.00
2018-12-09T12:04:21.442Z,7.90
2018-12-09T12:05:24.006Z,8.00
2018-12-09T12:06:26.549Z,8.00
2018-12-09T12:07:29.045Z,8.00
2018-12-09T12:08:31.553Z,8.00
2018-12-09T12:09:34.052Z,8.00
2018-12-09T12:10:36.553Z,8.00
2018-12-09T12:11:39.087Z,8.00
2018-12-09T12:12:41.589Z,7.90
2018-12-09T12:13:44.105Z,8.00
2018-12-09T12:14:46.662Z,8.00
2018-12-09T12:15:49.251Z,8.00
2018-12-09T12:16:51.801Z,8.00
2018-12-09T12:17:54.342Z,8.00
2018-12-09T12:18:56.893Z,8.00
2018-12-09T12:19:59.399Z,7.90
2018-12-09T12:21:01.904Z,7.90
2018-12-09T12:22:04.403Z,7.90
2018-12-09T12:23:06.953Z,7.90
2018-12-09T12:24:09.497Z,7.90
2018-12-09T12:25:12.098Z,7.90
2018-12-09T12:26:15.434Z,7.90
2018-12-09T12:27:17.929Z,7.80
2018-12-09T12:28:20.431Z,7.90
2018-12-09T12:29:22.984Z,7.90
2018-12-09T12:30:26.286Z,7.90
2018-12-09T12:31:28.895Z,7.90
2018-12-09T12:32:31.401Z,7.80
2018-12-09T12:33:33.905Z,7.90
2018-12-09T12:34:36.442Z,7.80
2018-12-09T12:35:38.942Z,7.80
2018-12-09T12:36:41.445Z,7.80
2018-12-09T12:37:43.945Z,7.80
2018-12-09T12:38:46.479Z,7.80
2018-12-09T12:39:48.983Z,7.80
2018-12-09T12:40:51.485Z,7.80
2018-12-09T12:41:53.990Z,7.80
2018-12-09T12:42:57.103Z,7.80
2018-12-09T12:43:59.697Z,7.80
2018-12-09T12:45:02.204Z,7.70
2018-12-09T12:46:04.704Z,7.70
2018-12-09T12:47:07.301Z,7.70
2018-12-09T12:48:09.901Z,7.70
2018-12-09T12:49:12.466Z,7.70
2018-12-09T12:50:14.973Z,7.70
2018-12-09T12:51:17.471Z,7.70
2018-12-09T12:52:20.053Z,7.70
2018-12-09T12:53:22.605Z,7.70
2018-12-09T12:54:25.114Z,7.70
2018-12-09T12:55:27.618Z,7.70
2018-12-09T12:56:30.123Z,7.70
2018-12-09T12:57:32.654Z,7.70
2018-12-09T12:58:35.185Z,7.70
2018-12-09T12:59:37.702Z,7.70
2018-12-09T13:00:40.260Z,7.60
2018-12-09T13:01:42.849Z,7.60
2018-12-09T13:02:45.405Z,7.60
2018-12-09T13:03:47.914Z,7.60
2018-12-09T13:04:50.470Z,7.60
2018-12-09T13:05:53.057Z,7.60
2018-12-09T13:06:55.570Z,7.60
2018-12-09T13:07:58.074Z,7.60
2018-12-09T13:09:00.579Z,7.60
2018-12-09T13:10:04.762Z,7.60
2018-12-09T13:11:07.312Z,7.60
2018-12-09T13:12:09.816Z,7.60
2018-12-09T13:13:12.352Z,7.50
2018-12-09T13:14:14.862Z,7.50
2018-12-09T13:15:17.367Z,7.50
2018-12-09T13:16:19.870Z,7.50
2018-12-09T13:17:22.380Z,7.50
2018-12-09T13:18:24.914Z,7.50
2018-12-09T13:19:27.437Z,7.50
2018-12-09T13:20:29.933Z,7.50
2018-12-09T13:21:32.446Z,7.50
2018-12-09T13:22:34.952Z,7.60
2018-12-09T13:23:37.458Z,7.50
2018-12-09T13:24:39.994Z,7.50
2018-12-09T13:25:42.542Z,7.50
2018-12-09T13:26:45.092Z,7.50
2018-12-09T13:27:47.637Z,7.50
2018-12-09T13:28:50.185Z,7.50
2018-12-09T13:29:52.687Z,7.40
2018-12-09T13:30:55.190Z,7.40
2018-12-09T13:31:57.689Z,7.40
2018-12-09T13:33:00.219Z,7.40
2018-12-09T13:34:02.820Z,7.40
2018-12-09T13:35:05.378Z,7.40
2018-12-09T13:36:08.075Z,7.40
2018-12-09T13:37:10.586Z,7.40
2018-12-09T13:38:13.205Z,7.50
2018-12-09T13:39:15.814Z,7.50
2018-12-09T13:40:18.372Z,7.40
2018-12-09T13:41:20.913Z,7.50
2018-12-09T13:42:23.420Z,7.50
2018-12-09T13:43:26.019Z,7.50
2018-12-09T13:44:28.558Z,7.50
2018-12-09T13:45:31.129Z,7.50
2018-12-09T13:46:33.633Z,7.50
2018-12-09T13:47:36.141Z,7.40
2018-12-09T13:48:38.649Z,7.40
2018-12-09T13:49:41.189Z,7.40
2018-12-09T13:50:43.865Z,7.40
2018-12-09T13:51:46.365Z,7.40
2018-12-09T13:52:48.888Z,7.40
2018-12-09T13:53:51.449Z,7.50
2018-12-09T13:54:53.959Z,7.50
2018-12-09T13:55:56.485Z,7.50
2018-12-09T13:56:58.998Z,7.50